createdAt,value
2019-04-11T00:00:48.041Z,28.73
2019-04-11T00:02:53.598Z,27.35
2019-04-11T00:04:59.136Z,25.30
2019-04-11T00:07:05.956Z,25.88
2019-04-11T00:09:14.483Z,22.98
2019-04-11T00:11:20.086Z,22.67
2019-04-11T00:13:27.555Z,25.90
2019-04-11T00:15:32.833Z,27.93
2019-04-11T00:17:38.385Z,25.85
2019-04-11T00:19:43.878Z,26.75
2019-04-11T00:21:49.941Z,23.67
2019-04-11T00:23:56.544Z,23.62
2019-04-11T00:26:02.169Z,25.62
2019-04-11T00:28:07.878Z,26.25
2019-04-11T00:30:13.647Z,25.32
2019-04-11T00:32:19.216Z,26.40
2019-04-11T00:34:24.748Z,25.23
2019-04-11T00:36:30.551Z,27.02
2019-04-11T00:38:36.245Z,29.00
2019-04-11T00:40:41.736Z,27.00
2019-04-11T00:42:47.191Z,25.55
2019-04-11T00:44:52.594Z,24.87
2019-04-11T00:46:58.476Z,27.75
2019-04-11T00:49:04.082Z,25.27
2019-04-11T00:51:09.821Z,26.85
2019-04-11T00:53:16.029Z,27.93
2019-04-11T00:55:21.780Z,26.42
2019-04-11T00:57:27.259Z,25.40
2019-04-11T00:59:32.675Z,28.70
2019-04-11T01:01:38.087Z,26.25
2019-04-11T01:03:43.529Z,26.93
2019-04-11T01:05:49.809Z,27.62
2019-04-11T01:07:56.639Z,29.10
2019-04-11T01:10:02.670Z,29.30
2019-04-11T01:12:08.183Z,29.37
2019-04-11T01:14:13.744Z,28.77
2019-04-11T01:16:26.971Z,29.52
2019-04-11T01:18:32.399Z,27.48
2019-04-11T01:20:37.822Z,28.87
2019-04-11T01:22:43.238Z,26.77
2019-04-11T01:24:48.708Z,28.75
2019-04-11T01:26:54.676Z,30.85
2019-04-11T01:29:00.923Z,31.12
2019-04-11T01:31:09.458Z,31.60
2019-04-11T01:33:15.741Z,32.17
2019-04-11T01:35:21.396Z,33.65
2019-04-11T01:37:27.978Z,29.40
2019-04-11T01:39:51.668Z,32.65
2019-04-11T01:41:58.574Z,29.12
2019-04-11T01:44:06.786Z,30.82
2019-04-11T01:46:11.322Z,33.83
2019-04-11T01:48:39.633Z,33.10
2019-04-11T01:50:45.344Z,33.13
2019-04-11T01:52:50.882Z,34.05
2019-04-11T01:54:56.523Z,32.73
2019-04-11T01:57:02.019Z,30.90
2019-04-11T01:59:07.467Z,30.60
2019-04-11T02:01:37.002Z,29.90
2019-04-11T02:03:55.285Z,27.13
2019-04-11T02:06:01.279Z,30.25
2019-04-11T02:08:07.129Z,30.08
2019-04-11T02:10:12.822Z,29.18
2019-04-11T02:12:19.496Z,31.45
2019-04-11T02:14:25.835Z,28.40
2019-04-11T02:16:31.382Z,26.57
2019-04-11T02:18:37.348Z,30.97
2019-04-11T02:20:43.085Z,30.10
2019-04-11T02:22:52.878Z,31.68
2019-04-11T02:25:08.099Z,29.92
2019-04-11T02:27:20.997Z,27.48
2019-04-11T02:29:27.697Z,25.55
2019-04-11T02:31:34.778Z,29.55
2019-04-11T02:33:41.358Z,29.32
2019-04-11T02:35:49.224Z,28.50
2019-04-11T02:37:54.883Z,28.87
2019-04-11T02:40:03.078Z,26.87
2019-04-11T02:42:08.945Z,27.22
2019-04-11T02:44:32.029Z,27.45
2019-04-11T02:46:33.093Z,31.00
2019-04-11T02:48:31.077Z,31.27
2019-04-11T02:50:38.664Z,29.42
2019-04-11T02:52:44.436Z,31.70
2019-04-11T02:54:50.051Z,31.23
2019-04-11T02:56:57.520Z,28.52
2019-04-11T02:59:05.153Z,29.80
2019-04-11T03:01:12.305Z,28.52
2019-04-11T03:03:17.912Z,29.50
2019-04-11T03:05:24.557Z,29.23
2019-04-11T03:07:31.876Z,29.65
2019-04-11T03:09:37.548Z,32.03
2019-04-11T03:11:45.079Z,32.78
2019-04-11T03:13:54.838Z,32.17
2019-04-11T03:16:19.269Z,28.20
2019-04-11T03:18:09.982Z,32.23
2019-04-11T03:20:26.461Z,31.73
2019-04-11T03:22:24.797Z,31.48
2019-04-11T03:24:31.847Z,30.32
2019-04-11T03:26:38.711Z,30.80
2019-04-11T03:28:47.474Z,32.50
2019-04-11T03:31:13.170Z,33.63
2019-04-11T03:33:54.709Z,29.30
2019-04-11T03:37:38.535Z,33.45
2019-04-11T03:39:39.483Z,35.50
2019-04-11T03:41:45.416Z,33.05
2019-04-11T03:43:45.781Z,33.73
2019-04-11T03:46:01.959Z,36.58
2019-04-11T03:48:06.141Z,33.95
2019-04-11T03:50:03.837Z,35.28
2019-04-11T03:52:05.835Z,39.95
2019-04-11T03:54:13.655Z,40.85
2019-04-11T03:56:21.407Z,35.35
2019-04-11T03:58:26.706Z,29.95
2019-04-11T04:00:36.267Z,38.50
2019-04-11T04:02:41.139Z,39.00
2019-04-11T04:04:49.169Z,35.13
2019-04-11T04:06:55.316Z,36.70
2019-04-11T04:09:02.781Z,37.58
2019-04-11T04:11:18.557Z,38.25
2019-04-11T04:13:26.367Z,38.48
2019-04-11T04:16:00.068Z,33.10
2019-04-11T04:18:12.398Z,37.33
2019-04-11T04:20:46.387Z,38.58
2019-04-11T04:23:00.952Z,35.00
2019-04-11T04:25:08.262Z,40.40
2019-04-11T04:27:15.424Z,38.60
2019-04-11T04:29:21.874Z,38.63
2019-04-11T04:31:28.657Z,42.08
2019-04-11T04:33:36.086Z,33.92
2019-04-11T04:35:42.307Z,41.77
2019-04-11T04:37:51.726Z,37.40
2019-04-11T04:40:21.669Z,36.17
2019-04-11T04:42:11.093Z,38.85
2019-04-11T04:44:12.573Z,38.92
2019-04-11T04:46:36.627Z,42.80
2019-04-11T04:48:27.188Z,32.10
2019-04-11T04:50:34.222Z,36.58
2019-04-11T04:52:40.844Z,40.48
2019-04-11T04:54:48.532Z,37.20
2019-04-11T04:56:55.288Z,37.60
2019-04-11T04:59:02.765Z,37.53
2019-04-11T05:01:10.043Z,33.45
2019-04-11T05:03:15.898Z,37.75
2019-04-11T05:05:24.352Z,35.98
2019-04-11T05:07:34.621Z,40.45
2019-04-11T05:09:38.517Z,34.03
2019-04-11T05:11:44.682Z,37.00
2019-04-11T05:13:51.781Z,37.03
2019-04-11T05:16:06.994Z,36.25
2019-04-11T05:18:05.953Z,36.68
2019-04-11T05:20:12.390Z,35.50
2019-04-11T05:22:18.927Z,38.35
2019-04-11T05:24:24.574Z,29.60
2019-04-11T05:26:31.319Z,33.42
2019-04-11T05:28:37.395Z,35.13
2019-04-11T05:30:44.965Z,37.15
2019-04-11T05:32:50.448Z,38.25
2019-04-11T05:34:55.957Z,35.45
2019-04-11T05:37:01.916Z,37.63
2019-04-11T05:39:08.783Z,37.88
2019-04-11T05:41:15.296Z,36.13
2019-04-11T05:43:24.608Z,37.33
2019-04-11T05:45:28.259Z,35.20
2019-04-11T05:47:33.706Z,34.90
2019-04-11T05:49:54.663Z,35.38
2019-04-11T05:52:06.058Z,32.13
2019-04-11T05:54:12.267Z,35.60
2019-04-11T05:56:20.785Z,33.80
2019-04-11T05:58:28.241Z,34.55
2019-04-11T06:00:50.733Z,33.20
2019-04-11T06:03:02.005Z,32.05
2019-04-11T06:05:19.350Z,28.17
2019-04-11T06:07:32.930Z,35.08
2019-04-11T06:09:41.662Z,35.25
2019-04-11T06:12:13.597Z,32.50
2019-04-11T06:14:31.422Z,33.45
2019-04-11T06:16:52.587Z,33.80
2019-04-11T06:19:30.477Z,34.00
2019-04-11T06:21:40.168Z,31.68
2019-04-11T06:24:03.546Z,31.02
2019-04-11T06:26:22.919Z,33.48
2019-04-11T06:28:30.803Z,34.48
2019-04-11T06:30:54.766Z,34.75
2019-04-11T06:33:24.814Z,34.90
2019-04-11T06:35:58.484Z,36.63
2019-04-11T06:38:40.821Z,32.67
2019-04-11T06:40:54.549Z,33.58
2019-04-11T06:43:09.920Z,31.60
2019-04-11T06:45:32.970Z,33.25
2019-04-11T06:48:05.208Z,33.28
2019-04-11T06:50:22.991Z,35.85
2019-04-11T06:52:28.759Z,34.58
2019-04-11T06:54:56.268Z,34.15
2019-04-11T06:57:02.730Z,36.75
2019-04-11T06:59:12.240Z,34.13
2019-04-11T07:01:22.315Z,33.48
2019-04-11T07:03:32.463Z,36.38
2019-04-11T07:05:38.649Z,34.73
2019-04-11T07:07:47.969Z,35.58
2019-04-11T07:10:04.567Z,31.73
2019-04-11T07:12:17.657Z,34.25
2019-04-11T07:14:43.265Z,31.07
2019-04-11T07:17:13.824Z,32.08
2019-04-11T07:19:37.286Z,28.87
2019-04-11T07:21:44.047Z,32.60
2019-04-11T07:24:07.545Z,28.70
2019-04-11T07:26:35.133Z,28.20
2019-04-11T07:29:04.583Z,28.38
2019-04-11T07:31:28.678Z,27.82
2019-04-11T07:33:54.290Z,24.52
2019-04-11T07:36:18.766Z,25.97
2019-04-11T07:38:32.590Z,27.22
2019-04-11T07:40:56.907Z,22.85
2019-04-11T07:43:12.804Z,27.93
2019-04-11T07:45:19.346Z,28.45
2019-04-11T07:47:37.232Z,29.12
2019-04-11T07:49:43.355Z,27.75
2019-04-11T07:51:52.969Z,28.75
2019-04-11T07:54:00.292Z,25.30
2019-04-11T07:56:07.782Z,28.02
2019-04-11T07:58:35.257Z,28.80
2019-04-11T08:01:18.964Z,28.15
2019-04-11T08:03:49.167Z,26.97
2019-04-11T08:06:08.293Z,26.90
2019-04-11T08:08:30.865Z,23.57
2019-04-11T08:10:41.451Z,26.87
2019-04-11T08:12:47.966Z,22.10
2019-04-11T08:15:21.816Z,28.07
2019-04-11T08:17:36.793Z,25.88
2019-04-11T08:19:55.798Z,26.77
2019-04-11T08:22:11.635Z,27.37
2019-04-11T08:24:25.848Z,25.00
2019-04-11T08:26:52.912Z,28.95
2019-04-11T08:29:05.403Z,24.70
2019-04-11T08:31:28.788Z,27.05
2019-04-11T08:33:35.335Z,24.65
2019-04-11T08:36:12.055Z,25.10
2019-04-11T08:38:26.745Z,26.30
2019-04-11T08:40:35.724Z,25.40
2019-04-11T08:42:59.004Z,27.77
2019-04-11T08:45:08.206Z,28.40
2019-04-11T08:47:16.255Z,25.70
2019-04-11T08:49:35.061Z,23.80
2019-04-11T08:51:41.173Z,27.00
2019-04-11T08:54:06.945Z,26.05
2019-04-11T08:56:12.606Z,24.57
2019-04-11T08:58:23.010Z,21.65
2019-04-11T09:00:42.264Z,27.85
2019-04-11T09:02:55.823Z,28.00
2019-04-11T09:05:20.431Z,25.62
2019-04-11T09:07:31.698Z,23.35
2019-04-11T09:09:55.653Z,26.42
2019-04-11T09:12:04.441Z,26.87
2019-04-11T09:14:41.411Z,28.47
2019-04-11T09:17:12.308Z,25.80
2019-04-11T09:19:27.474Z,27.20
2019-04-11T09:22:10.942Z,23.18
2019-04-11T09:24:48.516Z,21.10
2019-04-11T09:27:12.151Z,22.70
2019-04-11T09:29:18.066Z,23.90
2019-04-11T09:31:43.726Z,22.67
2019-04-11T09:34:00.118Z,26.25
2019-04-11T09:36:24.574Z,17.82
2019-04-11T09:38:30.571Z,26.30
2019-04-11T09:41:01.026Z,25.27
2019-04-11T09:43:24.118Z,23.55
2019-04-11T09:45:52.640Z,23.47
2019-04-11T09:48:18.263Z,25.92
2019-04-11T09:50:42.732Z,21.35
2019-04-11T09:52:49.466Z,23.32
2019-04-11T09:55:17.646Z,20.32
2019-04-11T09:57:30.435Z,22.82
2019-04-11T10:00:01.744Z,21.82
2019-04-11T10:02:44.063Z,21.85
2019-04-11T10:04:50.207Z,23.70
2019-04-11T10:07:13.150Z,22.35
2019-04-11T10:09:19.720Z,24.60
2019-04-11T10:11:54.729Z,22.70
2019-04-11T10:14:07.141Z,21.97
2019-04-11T10:16:46.815Z,23.18
2019-04-11T10:19:14.008Z,21.65
2019-04-11T10:21:19.559Z,23.87
2019-04-11T10:23:36.962Z,25.65
2019-04-11T10:25:47.297Z,20.23
2019-04-11T10:28:25.048Z,21.55
2019-04-11T10:30:48.315Z,22.10
2019-04-11T10:32:57.274Z,20.85
2019-04-11T10:35:22.072Z,23.80
2019-04-11T10:37:27.610Z,22.15
2019-04-11T10:39:54.794Z,22.02
2019-04-11T10:42:06.371Z,21.70
2019-04-11T10:44:13.910Z,22.20
2019-04-11T10:46:28.423Z,22.10
2019-04-11T10:48:46.738Z,19.87
2019-04-11T10:51:14.932Z,23.62
2019-04-11T10:53:22.873Z,21.80
2019-04-11T10:55:46.188Z,20.08
2019-04-11T10:58:20.602Z,23.25
2019-04-11T11:00:31.326Z,20.95
2019-04-11T11:02:57.844Z,18.80
2019-04-11T11:05:05.167Z,19.75
2019-04-11T11:07:13.872Z,20.82
2019-04-11T11:09:38.911Z,20.32
2019-04-11T11:11:50.699Z,19.25
2019-04-11T11:14:18.783Z,19.45
2019-04-11T11:16:30.418Z,20.57
2019-04-11T11:19:19.439Z,19.12
2019-04-11T11:21:03.926Z,21.00
2019-04-11T11:23:29.049Z,18.40
2019-04-11T11:25:49.991Z,20.00
2019-04-11T11:27:53.958Z,16.55
2019-04-11T11:30:31.555Z,20.00
2019-04-11T11:32:41.131Z,19.20
2019-04-11T11:35:12.820Z,15.30
2019-04-11T11:37:35.446Z,18.45
2019-04-11T11:40:14.673Z,18.10
2019-04-11T11:42:42.090Z,18.87
2019-04-11T11:44:53.105Z,17.45
2019-04-11T11:47:18.146Z,20.97
2019-04-11T11:49:42.445Z,20.68
2019-04-11T11:52:05.043Z,21.80
2019-04-11T11:54:13.679Z,20.17
2019-04-11T11:56:19.929Z,20.60
2019-04-11T11:58:58.109Z,19.98
2019-04-11T12:01:08.501Z,19.25
2019-04-11T12:03:42.990Z,19.50
2019-04-11T12:05:53.748Z,21.23
2019-04-11T12:08:18.233Z,20.72
2019-04-11T12:10:41.678Z,23.18
2019-04-11T12:13:19.158Z,21.90
2019-04-11T12:15:39.934Z,20.68
2019-04-11T12:18:09.561Z,20.85
2019-04-11T12:20:22.858Z,22.32
2019-04-11T12:22:29.054Z,21.15
2019-04-11T12:24:52.407Z,20.88
2019-04-11T12:27:20.538Z,21.50
2019-04-11T12:29:46.804Z,17.65
2019-04-11T12:31:55.625Z,25.17
2019-04-11T12:34:23.966Z,19.95
2019-04-11T12:36:41.941Z,21.12
2019-04-11T12:39:13.898Z,25.15
2019-04-11T12:41:26.151Z,23.77
2019-04-11T12:43:46.831Z,23.25
2019-04-11T12:46:09.854Z,22.55
2019-04-11T12:48:15.384Z,19.70
2019-04-11T12:50:39.826Z,21.95
2019-04-11T12:52:51.080Z,22.05
2019-04-11T12:54:56.632Z,23.30
2019-04-11T12:57:20.994Z,22.80
2019-04-11T12:59:28.938Z,19.62
2019-04-11T13:02:08.617Z,22.27
2019-04-11T13:04:44.163Z,19.10
2019-04-11T13:07:20.144Z,19.52
2019-04-11T13:09:47.322Z,22.25
2019-04-11T13:11:53.320Z,19.12
2019-04-11T13:14:19.387Z,17.32
2019-04-11T13:16:26.424Z,18.40
2019-04-11T13:18:56.727Z,17.50
2019-04-11T13:21:11.771Z,19.70
2019-04-11T13:23:29.658Z,17.52
2019-04-11T13:25:52.662Z,13.15
2019-04-11T13:27:58.762Z,16.15
2019-04-11T13:30:30.028Z,11.70
2019-04-11T13:33:07.275Z,15.18
2019-04-11T13:35:28.178Z,14.68
2019-04-11T13:37:51.134Z,16.87
2019-04-11T13:40:10.020Z,10.43
2019-04-11T13:42:40.612Z,13.85
2019-04-11T13:44:46.024Z,12.82
2019-04-11T13:47:08.925Z,14.15
2019-04-11T13:49:33.383Z,14.38
2019-04-11T13:51:59.771Z,12.37
2019-04-11T13:54:39.791Z,13.50
2019-04-11T13:57:07.070Z,12.70
2019-04-11T13:59:30.263Z,13.10
2019-04-11T14:01:37.387Z,13.18
2019-04-11T14:04:01.757Z,12.80
2019-04-11T14:06:18.374Z,12.03
2019-04-11T14:08:28.138Z,13.28
2019-04-11T14:10:33.566Z,15.03
2019-04-11T14:12:39.022Z,14.15
2019-04-11T14:15:01.661Z,11.00
2019-04-11T14:17:41.920Z,13.53
2019-04-11T14:20:05.802Z,16.23
2019-04-11T14:22:13.739Z,13.55
2019-04-11T14:24:28.042Z,13.75
2019-04-11T14:26:37.050Z,14.50
2019-04-11T14:28:51.926Z,15.70
2019-04-11T14:31:25.555Z,13.18
2019-04-11T14:33:32.706Z,11.68
2019-04-11T14:35:57.676Z,15.03
2019-04-11T14:38:09.512Z,10.88
2019-04-11T14:40:34.494Z,13.70
2019-04-11T14:42:53.246Z,14.03
2019-04-11T14:44:58.702Z,11.97
2019-04-11T14:47:23.091Z,12.70
2019-04-11T14:49:28.502Z,11.83
2019-04-11T14:51:59.176Z,13.15
2019-04-11T14:54:17.085Z,12.33
2019-04-11T14:56:21.809Z,12.98
2019-04-11T14:58:41.191Z,14.43
2019-04-11T15:00:46.634Z,12.33
2019-04-11T15:03:19.807Z,11.85
2019-04-11T15:05:44.876Z,11.05
2019-04-11T15:07:51.736Z,9.88
2019-04-11T15:10:09.729Z,10.38
2019-04-11T15:12:20.804Z,12.20
2019-04-11T15:14:57.378Z,11.57
2019-04-11T15:17:12.576Z,13.93
2019-04-11T15:19:18.140Z,11.80
2019-04-11T15:21:41.062Z,11.70
2019-04-11T15:23:49.564Z,11.53
2019-04-11T15:26:14.159Z,12.13
2019-04-11T15:28:38.767Z,13.75
2019-04-11T15:30:48.545Z,10.50
2019-04-11T15:33:11.133Z,10.98
2019-04-11T15:35:16.634Z,11.45
2019-04-11T15:37:47.572Z,12.37
2019-04-11T15:40:08.640Z,10.90
2019-04-11T15:42:20.635Z,12.00
2019-04-11T15:44:45.042Z,10.78
2019-04-11T15:46:50.859Z,12.47
2019-04-11T15:49:21.096Z,13.00
2019-04-11T15:51:35.752Z,10.80
2019-04-11T15:54:09.436Z,11.60
2019-04-11T15:56:32.416Z,10.78
2019-04-11T15:58:44.413Z,12.55
2019-04-11T16:01:08.902Z,11.25
2019-04-11T16:03:17.231Z,11.33
2019-04-11T16:05:47.613Z,11.43
2019-04-11T16:08:27.064Z,11.40
2019-04-11T16:10:36.392Z,7.75
2019-04-11T16:12:50.198Z,11.97
2019-04-11T16:15:08.274Z,10.48
2019-04-11T16:17:36.064Z,11.95
2019-04-11T16:19:47.643Z,10.38
2019-04-11T16:22:10.536Z,11.05
2019-04-11T16:24:27.320Z,10.78
2019-04-11T16:26:39.876Z,11.50
2019-04-11T16:29:10.458Z,12.45
2019-04-11T16:31:15.975Z,12.00
2019-04-11T16:33:40.513Z,10.25
2019-04-11T16:35:51.073Z,12.68
2019-04-11T16:38:03.419Z,10.03
2019-04-11T16:40:40.827Z,10.30
2019-04-11T16:42:49.265Z,11.63
2019-04-11T16:45:13.868Z,11.55
2019-04-11T16:47:29.447Z,10.60
2019-04-11T16:49:35.149Z,9.35
2019-04-11T16:51:42.250Z,9.58
2019-04-11T16:53:47.699Z,11.53
2019-04-11T16:55:53.932Z,9.48
2019-04-11T16:57:59.672Z,9.18
2019-04-11T17:00:09.038Z,9.53
2019-04-11T17:02:14.907Z,10.10
2019-04-11T17:04:20.346Z,9.25
2019-04-11T17:06:38.599Z,9.08
2019-04-11T17:08:56.043Z,9.78
2019-04-11T17:11:19.339Z,10.78
2019-04-11T17:13:26.002Z,11.50
2019-04-11T17:15:31.946Z,13.03
2019-04-11T17:17:37.409Z,9.15
2019-04-11T17:19:43.330Z,9.90
2019-04-11T17:21:49.037Z,9.90
2019-04-11T17:23:55.056Z,10.80
2019-04-11T17:26:01.377Z,11.35
2019-04-11T17:28:09.008Z,13.98
2019-04-11T17:30:17.438Z,8.23
2019-04-11T17:32:23.619Z,9.53
2019-04-11T17:34:32.249Z,9.23
2019-04-11T17:36:37.359Z,7.95
2019-04-11T17:38:43.924Z,9.88
2019-04-11T17:40:55.667Z,9.83
2019-04-11T17:43:00.631Z,10.43
2019-04-11T17:45:08.443Z,8.65
2019-04-11T17:47:13.977Z,8.85
2019-04-11T17:49:19.938Z,7.80
2019-04-11T17:51:25.493Z,8.25
2019-04-11T17:53:30.999Z,8.58
2019-04-11T17:55:36.407Z,8.33
2019-04-11T17:57:41.956Z,9.93
2019-04-11T17:59:48.750Z,9.00
2019-04-11T18:01:54.302Z,9.25
2019-04-11T18:03:59.699Z,7.70
2019-04-11T18:06:05.107Z,9.58
2019-04-11T18:08:10.530Z,8.55
2019-04-11T18:10:16.039Z,9.88
2019-04-11T18:12:23.852Z,7.55
2019-04-11T18:14:30.974Z,8.45
2019-04-11T18:16:35.838Z,10.68
2019-04-11T18:18:41.275Z,9.25
2019-04-11T18:20:46.719Z,9.43
2019-04-11T18:22:52.131Z,10.20
2019-04-11T18:24:57.627Z,9.38
2019-04-11T18:27:04.466Z,9.33
2019-04-11T18:29:13.664Z,9.33
2019-04-11T18:31:20.467Z,9.95
2019-04-11T18:33:26.890Z,9.48
2019-04-11T18:35:36.320Z,10.00
2019-04-11T18:37:42.186Z,8.83
2019-04-11T18:39:47.712Z,9.48
2019-04-11T18:41:57.652Z,10.48
2019-04-11T18:44:03.205Z,10.25
2019-04-11T18:46:09.098Z,10.03
2019-04-11T18:48:14.520Z,11.08
2019-04-11T18:50:22.783Z,10.43
2019-04-11T18:52:29.010Z,9.53
2019-04-11T18:54:34.754Z,9.30
2019-04-11T18:56:40.152Z,8.90
2019-04-11T18:58:45.574Z,8.25
2019-04-11T19:00:51.119Z,10.20
2019-04-11T19:02:56.560Z,8.35
2019-04-11T19:05:02.255Z,9.58
2019-04-11T19:07:07.815Z,9.83
2019-04-11T19:09:14.879Z,10.38
2019-04-11T19:11:20.664Z,9.25
2019-04-11T19:13:26.084Z,9.08
2019-04-11T19:15:31.526Z,10.53
2019-04-11T19:17:36.979Z,8.78
2019-04-11T19:19:42.393Z,8.85
2019-04-11T19:21:50.755Z,9.75
2019-04-11T19:23:54.958Z,8.60
2019-04-11T19:26:00.469Z,8.45
2019-04-11T19:28:05.886Z,9.30
2019-04-11T19:30:11.479Z,9.83
2019-04-11T19:32:16.883Z,8.13
2019-04-11T19:34:22.282Z,8.70
2019-04-11T19:36:27.715Z,10.10
2019-04-11T19:38:34.919Z,8.20
2019-04-11T19:40:40.339Z,9.13
2019-04-11T19:42:48.820Z,9.55
2019-04-11T19:44:52.867Z,9.55
2019-04-11T19:46:58.338Z,11.65
2019-04-11T19:49:03.758Z,10.15
2019-04-11T19:51:10.958Z,8.45
2019-04-11T19:53:16.293Z,11.00
2019-04-11T19:57:42.920Z,10.45
2019-04-11T19:59:48.440Z,10.50
2019-04-11T20:01:54.337Z,11.55
2019-04-11T20:03:59.790Z,10.98
2019-04-11T20:06:05.290Z,11.80
2019-04-11T20:08:12.342Z,10.13
2019-04-11T20:10:18.015Z,10.60
2019-04-11T20:12:23.423Z,11.45
2019-04-11T20:14:28.905Z,10.18
2019-04-11T20:16:41.395Z,9.63
2019-04-11T20:18:50.956Z,10.28
2019-04-11T20:20:52.400Z,11.75
2019-04-11T20:22:59.972Z,10.20
2019-04-11T20:25:05.869Z,9.00
2019-04-11T20:27:14.214Z,9.78
2019-04-11T20:29:21.395Z,10.63
2019-04-11T20:31:28.083Z,9.45
2019-04-11T20:33:34.712Z,9.88
2019-04-11T20:35:40.671Z,10.88
2019-04-11T20:37:48.066Z,10.25
2019-04-11T20:39:53.961Z,9.40
2019-04-11T20:42:01.303Z,10.95
2019-04-11T20:44:06.949Z,10.32
2019-04-11T20:46:12.776Z,10.25
2019-04-11T20:48:18.376Z,10.65
2019-04-11T20:50:24.062Z,10.00
2019-04-11T20:52:29.802Z,9.55
2019-04-11T20:54:38.480Z,10.05
2019-04-11T20:56:45.075Z,10.68
2019-04-11T21:01:11.801Z,9.95
2019-04-11T21:03:17.302Z,9.78
2019-04-11T21:05:22.742Z,8.00
2019-04-11T21:07:31.631Z,10.60
2019-04-11T21:09:36.014Z,10.30
2019-04-11T21:11:41.434Z,8.73
2019-04-11T21:13:46.852Z,11.40
2019-04-11T21:15:52.294Z,10.85
2019-04-11T21:17:57.718Z,11.90
2019-04-11T21:20:03.170Z,13.90
2019-04-11T21:22:08.626Z,11.57
2019-04-11T21:24:14.050Z,12.70
2019-04-11T21:26:28.489Z,14.25
2019-04-11T21:28:33.577Z,12.85
2019-04-11T21:30:39.002Z,12.25
2019-04-11T21:32:44.434Z,9.88
2019-04-11T21:34:49.851Z,10.50
2019-04-11T21:36:55.308Z,12.03
2019-04-11T21:39:03.539Z,12.18
2019-04-11T21:41:08.037Z,11.12
2019-04-11T21:43:13.494Z,12.35
2019-04-11T21:45:18.921Z,12.30
2019-04-11T21:47:24.399Z,9.93
2019-04-11T21:49:29.826Z,11.68
2019-04-11T21:51:35.234Z,12.75
2019-04-11T21:53:44.518Z,11.60
2019-04-11T21:55:48.416Z,12.25
2019-04-11T21:57:53.963Z,13.13
2019-04-11T22:00:01.457Z,12.90
2019-04-11T22:02:07.613Z,11.12
2019-04-11T22:04:13.195Z,10.60
2019-04-11T22:06:18.614Z,10.63
2019-04-11T22:08:24.030Z,12.88
2019-04-11T22:10:29.651Z,11.85
2019-04-11T22:12:35.060Z,12.05
2019-04-11T22:14:42.016Z,12.13
2019-04-11T22:16:47.580Z,12.75
2019-04-11T22:18:53.001Z,12.10
2019-04-11T22:20:58.421Z,12.90
2019-04-11T22:23:03.951Z,12.68
2019-04-11T22:25:09.432Z,11.83
2019-04-11T22:27:14.862Z,13.98
2019-04-11T22:29:20.310Z,11.08
2019-04-11T22:31:25.778Z,13.15
2019-04-11T22:33:44.290Z,13.20
2019-04-11T22:35:49.822Z,12.25
2019-04-11T22:37:55.241Z,13.18
2019-04-11T22:40:02.105Z,14.23
2019-04-11T22:42:07.858Z,12.03
2019-04-11T22:44:13.295Z,13.40
2019-04-11T22:46:20.961Z,11.28
2019-04-11T22:48:25.821Z,13.75
2019-04-11T22:50:31.231Z,11.63
2019-04-11T22:52:36.650Z,12.35
2019-04-11T22:54:42.078Z,12.55
2019-04-11T22:56:47.568Z,12.13
2019-04-11T22:58:53.010Z,12.95
2019-04-11T23:00:58.422Z,11.83
2019-04-11T23:03:26.388Z,13.30
2019-04-11T23:05:31.798Z,12.50
2019-04-11T23:07:37.202Z,13.65
2019-04-11T23:09:42.621Z,12.63
2019-04-11T23:11:48.927Z,12.05
2019-04-11T23:13:54.346Z,13.03
2019-04-11T23:15:59.811Z,14.07
2019-04-11T23:18:05.230Z,13.93
2019-04-11T23:20:11.859Z,14.00
2019-04-11T23:22:17.746Z,14.23
2019-04-11T23:26:34.493Z,13.22
2019-04-11T23:28:39.907Z,12.78
2019-04-11T23:30:49.575Z,13.58
2019-04-11T23:32:52.422Z,13.25
2019-04-11T23:34:57.833Z,13.68
2019-04-11T23:37:03.326Z,13.60
2019-04-11T23:41:49.661Z,14.33
2019-04-11T23:43:53.223Z,12.95
2019-04-11T23:45:58.962Z,13.60
2019-04-11T23:48:04.408Z,14.07
2019-04-11T23:50:09.821Z,13.10
2019-04-11T23:52:15.238Z,12.82
2019-04-11T23:54:23.336Z,13.15
2019-04-11T23:56:28.168Z,15.53
2019-04-11T23:58:34.927Z,15.13
